Dallas, Texas
Traffic Map
Current Weather Conditions
Dallas, Texas
Clear
Clear
51°
Feels Like: 51°
Wind Chill: 51° Ceiling: Unl
Heat Index: 51° Visibility: 10mi
Dew Point: 24° Wind: 3mph
Humidity: 35% Direction: 200° (SSW)
Pressure: 30.23in Gusts: 0mph
Raw Report DataKDAL 160053Z 20003KT 10SM CLR 11/M04 A3023 RMK AO2 SLP236 T01061044
Traffic Incident Summary
Active as of:
Severity:
Category:
InformationThere was an issue retrieving the traffic information for this location. Please try a different location or try again shortly.
Advertisements